createdAt,value
2018-03-16T00:01:30.651Z,56.97
2018-03-16T00:03:59.425Z,57.93
2018-03-16T00:06:28.185Z,59.00
2018-03-16T00:08:56.547Z,58.27
2018-03-16T00:11:24.924Z,56.60
2018-03-16T00:13:53.276Z,60.77
2018-03-16T00:16:21.639Z,53.80
2018-03-16T00:18:50.417Z,57.43
2018-03-16T00:21:19.176Z,54.83
2018-03-16T00:23:47.547Z,59.40
2018-03-16T00:26:15.957Z,54.00
2018-03-16T00:28:44.312Z,54.00
2018-03-16T00:31:12.683Z,56.67
2018-03-16T00:33:41.080Z,56.70
2018-03-16T00:36:09.431Z,59.03
2018-03-16T00:38:37.850Z,55.30
2018-03-16T00:41:06.290Z,58.63
2018-03-16T00:43:34.642Z,58.87
2018-03-16T00:46:02.999Z,55.23
2018-03-16T00:48:31.392Z,59.10
2018-03-16T00:50:59.773Z,56.13
2018-03-16T00:53:28.998Z,50.90
2018-03-16T00:55:57.825Z,56.17
2018-03-16T00:58:26.212Z,54.70
2018-03-16T01:00:54.591Z,56.33
2018-03-16T01:03:22.971Z,50.63
2018-03-16T01:05:51.352Z,58.30
2018-03-16T01:08:19.739Z,52.97
2018-03-16T01:10:48.534Z,48.67
2018-03-16T01:13:16.895Z,55.10
2018-03-16T01:15:45.275Z,51.33
2018-03-16T01:18:13.663Z,50.60
2018-03-16T01:20:47.383Z,54.57
2018-03-16T01:23:15.786Z,52.70
2018-03-16T01:25:44.163Z,43.10
2018-03-16T01:28:12.560Z,50.87
2018-03-16T01:30:40.940Z,60.97
2018-03-16T01:33:09.295Z,46.40
2018-03-16T01:35:37.655Z,55.33
2018-03-16T01:38:06.042Z,50.87
2018-03-16T01:40:34.991Z,49.20
2018-03-16T01:43:03.878Z,45.03
2018-03-16T01:45:32.266Z,42.47
2018-03-16T01:48:01.044Z,41.70
2018-03-16T01:50:29.437Z,44.50
2018-03-16T01:53:11.379Z,46.10
2018-03-16T01:55:39.740Z,38.40
2018-03-16T01:58:08.101Z,43.30
2018-03-16T02:00:36.888Z,43.70
2018-03-16T02:03:05.647Z,34.50
2018-03-16T02:05:34.015Z,34.90
2018-03-16T02:08:02.444Z,36.80
2018-03-16T02:10:31.207Z,33.83
2018-03-16T02:12:59.560Z,29.10
2018-03-16T02:15:28.321Z,31.20
2018-03-16T02:17:56.691Z,27.00
2018-03-16T02:20:25.066Z,27.17
2018-03-16T02:22:53.435Z,31.87
2018-03-16T02:25:22.188Z,28.27
2018-03-16T02:27:50.605Z,22.30
2018-03-16T02:30:19.382Z,27.73
2018-03-16T02:32:47.768Z,26.70
2018-03-16T02:35:16.562Z,22.97
2018-03-16T02:37:44.996Z,26.80
2018-03-16T02:40:13.392Z,21.13
2018-03-16T02:42:41.736Z,28.80
2018-03-16T02:45:10.141Z,24.10
2018-03-16T02:47:38.521Z,22.60
2018-03-16T02:50:06.898Z,27.43
2018-03-16T02:52:35.309Z,21.53
2018-03-16T02:55:04.063Z,23.60
2018-03-16T02:57:32.491Z,22.30
2018-03-16T03:00:00.900Z,26.43
2018-03-16T03:02:29.261Z,23.57
2018-03-16T03:04:57.684Z,29.67
2018-03-16T03:07:26.097Z,33.73
2018-03-16T03:09:54.848Z,24.60
2018-03-16T03:12:23.229Z,30.03
2018-03-16T03:14:51.643Z,23.03
2018-03-16T03:17:20.499Z,27.37
2018-03-16T03:19:48.860Z,27.20
2018-03-16T03:22:17.254Z,32.97
2018-03-16T03:24:45.604Z,36.17
2018-03-16T03:27:13.970Z,26.47
2018-03-16T03:29:42.359Z,23.67
2018-03-16T03:32:10.728Z,28.40
2018-03-16T03:34:39.116Z,30.53
2018-03-16T03:37:07.522Z,28.60
2018-03-16T03:39:35.896Z,28.10
2018-03-16T03:42:04.295Z,26.03
2018-03-16T03:44:32.707Z,26.83
2018-03-16T03:47:01.472Z,32.57
2018-03-16T03:49:30.247Z,30.23
2018-03-16T03:51:58.625Z,26.87
2018-03-16T03:54:27.035Z,25.93
2018-03-16T03:56:55.896Z,27.10
2018-03-16T03:59:24.296Z,30.63
2018-03-16T04:01:53.251Z,26.90
2018-03-16T04:04:21.643Z,26.60
2018-03-16T04:06:50.031Z,30.57
2018-03-16T04:09:18.431Z,30.57
2018-03-16T04:11:47.197Z,31.00
2018-03-16T04:14:15.607Z,27.77
2018-03-16T04:16:43.972Z,26.90
2018-03-16T04:19:12.354Z,29.20
2018-03-16T04:21:40.763Z,32.73
2018-03-16T04:24:09.128Z,28.77
2018-03-16T04:26:37.496Z,29.83
2018-03-16T04:29:06.276Z,28.40
2018-03-16T04:31:35.047Z,25.00
2018-03-16T04:34:03.459Z,29.30
2018-03-16T04:36:31.825Z,26.60
2018-03-16T04:39:00.600Z,28.83
2018-03-16T04:41:28.971Z,29.30
2018-03-16T04:43:57.368Z,27.63
2018-03-16T04:46:26.242Z,31.70
2018-03-16T04:48:54.607Z,27.73
2018-03-16T04:51:22.971Z,33.13
2018-03-16T04:53:51.332Z,30.30
2018-03-16T04:56:19.710Z,29.40
2018-03-16T04:58:48.100Z,28.73
2018-03-16T05:01:16.504Z,26.17
2018-03-16T05:03:44.896Z,30.50
2018-03-16T05:06:13.275Z,30.20
2018-03-16T05:08:41.639Z,25.70
2018-03-16T05:11:10.017Z,31.23
2018-03-16T05:13:38.420Z,29.00
2018-03-16T05:16:07.209Z,26.30
2018-03-16T05:18:35.998Z,34.60
2018-03-16T05:21:04.786Z,30.27
2018-03-16T05:23:33.674Z,26.37
2018-03-16T05:26:02.040Z,28.50
2018-03-16T05:28:30.410Z,28.37
2018-03-16T05:30:58.814Z,28.37
2018-03-16T05:33:27.708Z,31.87
2018-03-16T05:35:56.475Z,26.80
2018-03-16T05:38:24.831Z,27.70
2018-03-16T05:40:53.190Z,24.83
2018-03-16T05:43:21.571Z,25.53
2018-03-16T05:45:49.952Z,27.30
2018-03-16T05:48:18.316Z,28.43
2018-03-16T05:50:46.694Z,24.27
2018-03-16T05:53:15.090Z,26.67
2018-03-16T05:55:43.512Z,29.10
2018-03-16T05:58:11.903Z,26.20
2018-03-16T06:00:40.290Z,27.00
2018-03-16T06:03:08.681Z,23.43
2018-03-16T06:05:37.061Z,25.80
2018-03-16T06:08:05.426Z,24.53
2018-03-16T06:10:35.072Z,20.07
2018-03-16T06:13:03.432Z,24.10
2018-03-16T06:15:31.861Z,28.43
2018-03-16T06:18:00.223Z,21.37
2018-03-16T06:20:28.608Z,21.87
2018-03-16T06:22:57.740Z,22.70
2018-03-16T06:25:26.537Z,35.03
2018-03-16T06:27:55.325Z,23.03
2018-03-16T06:30:24.110Z,22.10
2018-03-16T06:32:52.873Z,18.77
2018-03-16T06:35:21.335Z,25.40
2018-03-16T06:37:49.691Z,20.67
2018-03-16T06:40:18.059Z,23.40
2018-03-16T06:42:46.424Z,25.60
2018-03-16T06:45:17.368Z,20.07
2018-03-16T06:47:45.755Z,24.90
2018-03-16T06:50:15.223Z,19.63
2018-03-16T06:52:43.609Z,24.33
2018-03-16T06:55:12.047Z,21.67
2018-03-16T06:57:40.407Z,17.70
2018-03-16T07:00:08.786Z,22.53
2018-03-16T07:02:37.195Z,20.30
2018-03-16T07:05:05.572Z,25.60
2018-03-16T07:07:34.040Z,19.80
2018-03-16T07:10:02.443Z,17.90
2018-03-16T07:12:31.729Z,23.50
2018-03-16T07:15:17.786Z,17.20
2018-03-16T07:17:46.163Z,15.97
2018-03-16T07:20:14.547Z,19.47
2018-03-16T07:22:42.915Z,15.47
2018-03-16T07:25:11.291Z,15.43
2018-03-16T07:27:39.669Z,16.90
2018-03-16T07:30:08.431Z,20.70
2018-03-16T07:32:36.814Z,17.67
2018-03-16T07:35:05.246Z,17.70
2018-03-16T07:37:33.581Z,15.20
2018-03-16T07:40:02.360Z,19.83
2018-03-16T07:42:31.132Z,14.50
2018-03-16T07:44:59.496Z,18.97
2018-03-16T07:47:27.892Z,17.73
2018-03-16T07:49:56.705Z,14.90
2018-03-16T07:52:25.084Z,16.80
2018-03-16T07:54:53.476Z,18.97
2018-03-16T07:57:21.850Z,17.30
2018-03-16T07:59:50.300Z,18.73
2018-03-16T08:02:18.675Z,15.20
2018-03-16T08:04:47.112Z,14.50
2018-03-16T08:07:15.499Z,15.13
2018-03-16T08:09:43.863Z,16.97
2018-03-16T08:12:12.303Z,23.30
2018-03-16T08:14:40.717Z,12.60
2018-03-16T08:17:09.084Z,12.60
2018-03-16T08:19:37.867Z,12.03
2018-03-16T08:22:06.709Z,12.73
2018-03-16T08:24:35.074Z,15.50
2018-03-16T08:27:03.449Z,12.33
2018-03-16T08:29:31.811Z,13.80
2018-03-16T08:32:00.183Z,12.90
2018-03-16T08:34:28.542Z,11.90
2018-03-16T08:36:57.403Z,11.80
2018-03-16T08:39:25.792Z,16.53
2018-03-16T08:41:54.180Z,13.30
2018-03-16T08:44:22.650Z,11.20
2018-03-16T08:46:51.103Z,23.27
2018-03-16T08:49:19.473Z,12.37
2018-03-16T08:51:48.372Z,13.50
2018-03-16T08:54:16.751Z,12.13
2018-03-16T08:56:45.120Z,13.97
2018-03-16T08:59:13.530Z,15.83
2018-03-16T09:01:42.026Z,11.57
2018-03-16T09:04:10.397Z,11.97
2018-03-16T09:06:38.757Z,14.20
2018-03-16T09:09:07.118Z,18.93
2018-03-16T09:11:35.541Z,15.90
2018-03-16T09:14:03.932Z,12.13
2018-03-16T09:16:32.700Z,13.43
2018-03-16T09:19:01.091Z,13.53
2018-03-16T09:21:29.464Z,11.50
2018-03-16T09:23:57.820Z,14.17
2018-03-16T09:26:26.203Z,12.93
2018-03-16T09:28:54.574Z,12.90
2018-03-16T09:31:22.935Z,13.90
2018-03-16T09:33:51.315Z,11.70
2018-03-16T09:36:19.684Z,12.47
2018-03-16T09:38:48.050Z,14.50
2018-03-16T09:41:16.479Z,18.90
2018-03-16T09:43:44.871Z,11.90
2018-03-16T09:46:13.320Z,13.30
2018-03-16T09:48:41.708Z,13.17
2018-03-16T09:51:10.115Z,13.50
2018-03-16T09:53:38.467Z,14.23
2018-03-16T09:56:06.850Z,12.60
2018-03-16T09:58:35.229Z,15.40
2018-03-16T10:01:03.596Z,12.70
2018-03-16T10:03:31.987Z,11.67
2018-03-16T10:06:00.365Z,12.43
2018-03-16T10:08:28.776Z,10.73
2018-03-16T10:10:57.181Z,11.73
2018-03-16T10:13:25.561Z,23.43
2018-03-16T10:15:53.932Z,12.53
2018-03-16T10:18:22.701Z,10.63
2018-03-16T10:20:51.083Z,13.90
2018-03-16T10:23:19.860Z,12.30
2018-03-16T10:25:48.230Z,11.77
2018-03-16T10:28:16.593Z,27.33
2018-03-16T10:33:20.026Z,14.27
2018-03-16T10:35:48.412Z,12.23
2018-03-16T10:38:16.879Z,12.27
2018-03-16T10:40:45.348Z,16.03
2018-03-16T10:43:13.712Z,11.50
2018-03-16T10:45:42.129Z,14.30
2018-03-16T10:48:10.495Z,12.73
2018-03-16T10:50:38.864Z,12.73
2018-03-16T10:53:07.234Z,12.83
2018-03-16T10:55:35.607Z,13.37
2018-03-16T10:58:03.972Z,11.67
2018-03-16T11:00:38.007Z,13.13
2018-03-16T11:03:08.154Z,17.40
2018-03-16T11:05:42.003Z,13.77
2018-03-16T11:08:10.361Z,13.60
2018-03-16T11:10:39.143Z,24.23
2018-03-16T11:13:07.911Z,13.23
2018-03-16T11:15:36.322Z,13.80
2018-03-16T11:18:05.094Z,16.10
2018-03-16T11:20:33.469Z,14.73
2018-03-16T11:23:01.832Z,15.00
2018-03-16T11:25:30.312Z,16.07
2018-03-16T11:27:58.675Z,20.73
2018-03-16T11:30:27.063Z,15.50
2018-03-16T11:32:55.438Z,14.50
2018-03-16T11:35:23.825Z,17.87
2018-03-16T11:37:52.199Z,16.30
2018-03-16T11:40:20.587Z,18.50
2018-03-16T11:42:48.943Z,21.40
2018-03-16T11:45:17.355Z,18.30
2018-03-16T11:47:45.737Z,20.33
2018-03-16T11:50:14.247Z,24.50
2018-03-16T11:52:42.683Z,26.23
2018-03-16T11:55:11.078Z,23.20
2018-03-16T11:57:39.535Z,22.47
2018-03-16T12:00:07.903Z,22.97
2018-03-16T12:02:36.281Z,25.27
2018-03-16T12:05:04.644Z,23.83
2018-03-16T12:07:33.032Z,24.90
2018-03-16T12:10:01.872Z,27.47
2018-03-16T12:12:30.739Z,28.77
2018-03-16T12:14:59.108Z,25.27
2018-03-16T12:17:27.499Z,26.17
2018-03-16T12:19:55.937Z,25.30
2018-03-16T12:22:24.292Z,23.93
2018-03-16T12:24:53.156Z,28.77
2018-03-16T12:27:22.058Z,25.60
2018-03-16T12:29:50.412Z,29.33
2018-03-16T12:32:18.799Z,27.97
2018-03-16T12:34:47.188Z,28.97
2018-03-16T12:37:15.560Z,32.73
2018-03-16T12:39:44.292Z,22.73
2018-03-16T12:42:12.685Z,28.70
2018-03-16T12:44:41.045Z,30.50
2018-03-16T12:47:09.416Z,26.33
2018-03-16T12:49:37.779Z,21.33
2018-03-16T12:52:06.637Z,24.37
2018-03-16T12:54:34.988Z,24.27
2018-03-16T12:57:03.359Z,23.47
2018-03-16T12:59:31.718Z,32.70
2018-03-16T13:02:00.500Z,22.87
2018-03-16T13:04:29.269Z,22.20
2018-03-16T13:06:57.636Z,19.07
2018-03-16T13:09:26.006Z,24.17
2018-03-16T13:11:54.498Z,19.50
2018-03-16T13:14:22.851Z,19.53
2018-03-16T13:16:51.215Z,19.47
2018-03-16T13:19:19.676Z,21.37
2018-03-16T13:21:48.028Z,20.20
2018-03-16T13:24:16.415Z,22.03
2018-03-16T13:26:45.181Z,18.50
2018-03-16T13:29:13.558Z,17.50
2018-03-16T13:31:41.929Z,19.37
2018-03-16T13:34:10.280Z,20.47
2018-03-16T13:36:38.688Z,21.30
2018-03-16T13:39:07.060Z,17.30
2018-03-16T13:41:35.516Z,25.37
2018-03-16T13:44:03.896Z,24.13
2018-03-16T13:46:32.272Z,17.57
2018-03-16T13:49:00.642Z,21.30
2018-03-16T13:51:29.019Z,21.10
2018-03-16T13:53:57.379Z,21.17
2018-03-16T13:56:26.148Z,19.53
2018-03-16T13:58:54.506Z,29.13
2018-03-16T14:01:22.868Z,19.23
2018-03-16T14:03:51.238Z,17.80
2018-03-16T14:06:19.642Z,18.03
2018-03-16T14:08:48.009Z,17.83
2018-03-16T14:11:16.405Z,20.90
2018-03-16T14:13:44.767Z,25.03
2018-03-16T14:16:13.186Z,19.63
2018-03-16T14:18:41.554Z,19.60
2018-03-16T14:21:09.938Z,18.60
2018-03-16T14:23:38.312Z,18.27
2018-03-16T14:26:06.700Z,21.47
2018-03-16T14:28:35.129Z,20.47
2018-03-16T14:31:04.396Z,25.80
2018-03-16T14:33:33.155Z,20.13
2018-03-16T14:36:01.515Z,20.90
2018-03-16T14:38:29.904Z,21.87
2018-03-16T14:40:58.284Z,19.60
2018-03-16T14:43:26.644Z,18.23
2018-03-16T14:45:55.036Z,18.57
2018-03-16T14:48:23.408Z,36.83
2018-03-16T14:50:51.782Z,17.83
2018-03-16T14:53:20.148Z,22.50
2018-03-16T14:55:48.646Z,18.83
2018-03-16T14:58:17.046Z,25.37
2018-03-16T15:00:45.406Z,24.00
2018-03-16T15:03:13.762Z,21.60
2018-03-16T15:05:42.172Z,16.13
2018-03-16T15:08:10.726Z,31.13
2018-03-16T15:10:39.126Z,26.13
2018-03-16T15:13:07.488Z,21.00
2018-03-16T15:15:35.863Z,21.37
2018-03-16T15:18:04.217Z,17.93
2018-03-16T15:20:32.596Z,15.87
2018-03-16T15:23:00.967Z,16.57
2018-03-16T15:25:29.741Z,22.20
2018-03-16T15:27:58.496Z,18.97
2018-03-16T15:30:26.915Z,18.10
2018-03-16T15:32:55.702Z,12.43
2018-03-16T15:35:24.090Z,15.30
2018-03-16T15:37:52.863Z,13.60
2018-03-16T15:40:21.723Z,11.83
2018-03-16T15:44:10.530Z,16.97
2018-03-16T15:46:39.305Z,21.20
2018-03-16T15:49:08.288Z,10.40
2018-03-16T15:51:36.661Z,14.13
2018-03-16T15:54:05.081Z,17.73
2018-03-16T15:56:33.483Z,9.67
2018-03-16T15:59:01.845Z,11.23
2018-03-16T16:01:30.280Z,13.70
2018-03-16T16:03:58.636Z,22.67
2018-03-16T16:06:27.024Z,8.10
2018-03-16T16:08:55.390Z,8.67
2018-03-16T16:11:23.777Z,10.13
2018-03-16T16:13:52.279Z,8.60
2018-03-16T16:16:20.717Z,13.40
2018-03-16T16:18:49.073Z,9.37
2018-03-16T16:21:17.490Z,9.40
2018-03-16T16:23:45.852Z,8.30
2018-03-16T16:26:14.216Z,8.87
2018-03-16T16:28:42.568Z,9.57
2018-03-16T16:31:10.936Z,9.00
2018-03-16T16:33:39.330Z,8.93
2018-03-16T16:36:08.170Z,15.10
2018-03-16T16:38:36.499Z,9.50
2018-03-16T16:41:05.268Z,9.50
2018-03-16T16:43:33.630Z,13.50
2018-03-16T16:46:02.054Z,9.23
2018-03-16T16:48:30.826Z,11.30
2018-03-16T16:50:59.186Z,11.03
2018-03-16T16:53:27.556Z,9.67
2018-03-16T16:55:55.934Z,12.10
2018-03-16T16:58:24.302Z,9.50
2018-03-16T17:00:52.665Z,9.93
2018-03-16T17:03:21.044Z,10.60
2018-03-16T17:05:49.440Z,20.33
2018-03-16T17:08:17.797Z,12.37
2018-03-16T17:10:46.220Z,9.67
2018-03-16T17:13:14.616Z,11.60
2018-03-16T17:15:43.389Z,8.77
2018-03-16T17:18:12.172Z,11.70
2018-03-16T17:20:40.550Z,8.13
2018-03-16T17:23:09.040Z,9.20
2018-03-16T17:25:37.436Z,12.33
2018-03-16T17:28:06.453Z,9.23
2018-03-16T17:30:34.912Z,16.43
2018-03-16T17:33:03.678Z,16.03
2018-03-16T17:35:32.041Z,82.07
2018-03-16T17:38:00.435Z,69.30
2018-03-16T17:40:28.917Z,12.40
2018-03-16T17:42:57.293Z,15.10
2018-03-16T17:45:25.676Z,12.70
2018-03-16T17:47:54.088Z,9.40
2018-03-16T17:50:22.471Z,10.80
2018-03-16T17:52:50.813Z,9.83
2018-03-16T17:55:19.348Z,8.00
2018-03-16T17:57:48.273Z,8.80
2018-03-16T18:00:16.653Z,9.27
2018-03-16T18:02:45.120Z,9.07
2018-03-16T18:05:13.576Z,10.30
2018-03-16T18:07:41.979Z,10.83
2018-03-16T18:10:10.419Z,9.50
2018-03-16T18:12:39.263Z,7.73
2018-03-16T18:15:07.653Z,7.43
2018-03-16T18:17:36.013Z,8.17
2018-03-16T18:20:04.406Z,7.90
2018-03-16T18:22:32.806Z,10.67
2018-03-16T18:25:01.608Z,7.90
2018-03-16T18:27:30.061Z,9.37
2018-03-16T18:29:58.546Z,45.60
2018-03-16T18:32:27.102Z,79.60
2018-03-16T18:34:55.465Z,49.97
2018-03-16T18:37:23.869Z,15.07
2018-03-16T18:39:52.542Z,11.90
2018-03-16T18:42:21.051Z,9.60
2018-03-16T18:44:49.541Z,8.13
2018-03-16T18:47:18.086Z,7.20
2018-03-16T18:49:46.464Z,7.63
2018-03-16T18:52:14.996Z,7.23
2018-03-16T18:54:43.398Z,7.80
2018-03-16T18:57:11.843Z,6.73
2018-03-16T18:59:40.364Z,6.60
2018-03-16T19:02:08.784Z,8.87
2018-03-16T19:04:37.156Z,7.40
2018-03-16T19:07:05.565Z,8.10
2018-03-16T19:09:33.967Z,9.00
2018-03-16T19:12:02.403Z,10.20
2018-03-16T19:14:30.968Z,11.20
2018-03-16T19:16:59.346Z,21.40
2018-03-16T19:19:27.719Z,9.90
2018-03-16T19:21:56.140Z,7.90
2018-03-16T19:24:24.908Z,8.10
2018-03-16T19:26:53.271Z,13.60
2018-03-16T19:29:21.686Z,9.07
2018-03-16T19:31:50.471Z,14.00
2018-03-16T19:34:19.699Z,8.33
2018-03-16T19:36:48.452Z,7.27
2018-03-16T19:39:16.855Z,6.60
2018-03-16T19:41:45.642Z,7.40
2018-03-16T19:44:14.387Z,6.17
2018-03-16T19:46:42.892Z,6.07
2018-03-16T19:49:11.262Z,6.60
2018-03-16T19:51:39.636Z,7.23
2018-03-16T19:54:08.003Z,9.90
2018-03-16T19:56:36.419Z,6.67
2018-03-16T19:59:04.794Z,5.10
2018-03-16T20:01:33.560Z,6.77
2018-03-16T20:04:02.053Z,6.00
2018-03-16T20:06:30.897Z,5.90
2018-03-16T20:08:59.603Z,6.50
2018-03-16T20:11:27.974Z,5.90
2018-03-16T20:13:56.323Z,6.07
2018-03-16T20:16:24.699Z,7.17
2018-03-16T20:18:53.430Z,6.83
2018-03-16T20:21:21.784Z,6.83
2018-03-16T20:24:50.641Z,8.40
2018-03-16T20:27:19.017Z,5.10
2018-03-16T20:29:47.377Z,7.37
2018-03-16T20:32:15.964Z,10.13
2018-03-16T20:34:44.342Z,5.70
2018-03-16T20:37:12.737Z,6.03
2018-03-16T20:39:41.121Z,10.63
2018-03-16T20:42:09.497Z,5.67
2018-03-16T20:44:38.252Z,4.00
2018-03-16T20:47:06.612Z,5.30
2018-03-16T20:49:35.024Z,5.87
2018-03-16T20:52:03.390Z,5.97
2018-03-16T20:54:31.745Z,7.43
2018-03-16T20:57:00.112Z,14.80
2018-03-16T20:59:28.480Z,4.43
2018-03-16T21:01:56.882Z,7.70
2018-03-16T21:04:25.239Z,10.33
2018-03-16T21:06:53.598Z,4.30
2018-03-16T21:09:22.362Z,4.53
2018-03-16T21:11:50.716Z,4.90
2018-03-16T21:14:19.070Z,3.97
2018-03-16T21:16:47.481Z,3.93
2018-03-16T21:19:15.849Z,5.20
2018-03-16T21:21:44.204Z,5.07
2018-03-16T21:24:12.568Z,4.47
2018-03-16T21:26:41.333Z,4.30
2018-03-16T21:29:09.692Z,4.77
2018-03-16T21:31:38.048Z,4.47
2018-03-16T21:34:06.620Z,4.80
2018-03-16T21:36:35.028Z,4.30
2018-03-16T21:39:03.376Z,5.23
2018-03-16T21:41:31.744Z,3.97
2018-03-16T21:44:00.174Z,4.33
2018-03-16T21:46:28.531Z,4.97
2018-03-16T21:48:56.880Z,6.50
2018-03-16T21:51:25.304Z,5.53
2018-03-16T21:53:53.653Z,5.00
2018-03-16T21:56:22.016Z,5.33
2018-03-16T21:58:50.394Z,4.33
2018-03-16T22:01:18.762Z,4.60
2018-03-16T22:03:47.535Z,5.80
2018-03-16T22:06:15.901Z,6.40
2018-03-16T22:08:44.256Z,4.50
2018-03-16T22:11:12.644Z,4.23
2018-03-16T22:13:41.000Z,4.73
2018-03-16T22:16:09.360Z,4.70
2018-03-16T22:18:37.736Z,3.80
2018-03-16T22:21:06.110Z,4.53
2018-03-16T22:23:34.472Z,4.53
2018-03-16T22:26:03.250Z,6.67
2018-03-16T22:28:31.604Z,5.03
2018-03-16T22:30:59.999Z,4.10
2018-03-16T22:33:28.350Z,3.70
2018-03-16T22:35:56.714Z,4.40
2018-03-16T22:38:25.069Z,4.90
2018-03-16T22:40:53.843Z,4.73
2018-03-16T22:43:22.582Z,4.17
2018-03-16T22:45:54.206Z,3.93
2018-03-16T22:48:22.593Z,8.90
2018-03-16T22:50:50.972Z,13.33
2018-03-16T22:53:19.356Z,4.33
2018-03-16T22:55:47.734Z,4.27
2018-03-16T22:58:16.097Z,4.47
2018-03-16T23:00:44.476Z,4.93
2018-03-16T23:03:12.900Z,8.87
2018-03-16T23:05:41.267Z,4.47
2018-03-16T23:08:09.635Z,10.50
2018-03-16T23:10:38.015Z,3.97
2018-03-16T23:13:06.380Z,9.23
2018-03-16T23:15:34.791Z,4.60
2018-03-16T23:18:03.154Z,5.17
2018-03-16T23:20:31.533Z,5.50
2018-03-16T23:22:59.940Z,4.10
2018-03-16T23:25:28.317Z,4.50
2018-03-16T23:27:56.662Z,15.67
2018-03-16T23:30:25.018Z,6.73
2018-03-16T23:32:53.376Z,4.23
2018-03-16T23:35:22.127Z,5.13
2018-03-16T23:37:50.493Z,7.53
2018-03-16T23:40:18.863Z,4.83
2018-03-16T23:42:47.227Z,8.73
2018-03-16T23:45:15.647Z,4.60
2018-03-16T23:47:43.998Z,8.37
2018-03-16T23:50:12.480Z,8.00
2018-03-16T23:52:40.843Z,4.80
2018-03-16T23:55:09.218Z,4.43
2018-03-16T23:57:37.574Z,4.60
